Time;durP1;ratioP1;P1;durP2;ratioP2;P2;SDS_P1;SDS_P2;PMS_P1;PMS_P2;Temp;Humidity;BMP_temperature;BMP_pressure;BME280_temperature;BME280_humidity;BME280_pressure;Samples;Min_cycle;Max_cycle;Signal;HPM_P1;HPM_P2
2022/05/20 00:00:23;;;;;;;;;;;;;;;35.33;18.85;101018.09;4424768;32;19961;-70
2022/05/20 00:02:48;;;;;;;;;;;;;;;35.15;19.02;101011.50;4427669;32;20442;-70
2022/05/20 00:05:14;;;;;;;;;;;;;;;35.30;18.99;101017.16;4426506;32;20625;-68
2022/05/20 00:07:40;;;;;;;;;;;;;;;35.38;18.90;100994.47;4428874;32;20070;-70
2022/05/20 00:10:06;;;;;;;;;;;;;;;35.29;18.97;100992.22;4428886;32;20395;-70
2022/05/20 00:12:31;;;;;;;;;;;;;;;35.06;19.21;100996.84;4427082;32;20008;-70
2022/05/20 00:14:57;;;;;;;;;;;;;;;34.86;19.15;100993.00;4427550;32;19960;-69
2022/05/20 00:17:22;;;;;;;;;;;;;;;34.91;19.05;101002.87;4425160;32;20024;-69
2022/05/20 00:19:48;;;;;;;;;;;;;;;34.76;19.43;101005.97;4426592;32;20201;-69
2022/05/20 00:22:14;;;;;;;;;;;;;;;34.63;19.49;100998.28;4427602;32;20256;-69
2022/05/20 00:25:45;;;;;;;;;;;;;;;34.89;19.39;100997.62;4425183;32;20441;-69
2022/05/20 00:27:24;;;;;;;;;;;;;;;34.88;19.39;100995.31;4427210;32;20462;-69
2022/05/20 00:29:50;;;;;;;;;;;;;;;34.99;19.16;100995.53;4428506;32;20005;-69
2022/05/20 00:32:15;;;;;;;;;;;;;;;34.86;19.37;100995.91;4425884;32;20000;-69
2022/05/20 00:34:41;;;;;;;;;;;;;;;34.59;19.51;100992.13;4427146;32;20008;-69
2022/05/20 00:37:07;;;;;;;;;;;;;;;34.47;19.68;100996.91;4426342;32;20010;-69
2022/05/20 00:39:33;;;;;;;;;;;;;;;34.55;19.61;100997.62;4428208;32;20326;-69
2022/05/20 00:42:07;;;;;;;;;;;;;;;34.69;19.41;100992.22;4422364;32;20435;-69
2022/05/20 00:44:33;;;;;;;;;;;;;;;34.66;19.48;100973.69;4427092;32;20334;-69
2022/05/20 00:46:59;;;;;;;;;;;;;;;35.03;19.06;100989.28;4425702;32;19957;-69
2022/05/20 00:49:24;;;;;;;;;;;;;;;34.87;19.19;100982.06;4421828;32;19977;-69
2022/05/20 00:51:52;;;;;;;;;;;;;;;35.04;18.98;100987.88;4415417;32;19985;-69
2022/05/20 00:54:21;;;;;;;;;;;;;;;34.61;19.37;100995.22;4414755;32;19957;-69
2022/05/20 00:56:49;;;;;;;;;;;;;;;34.69;19.28;100992.22;4417841;32;19989;-69
2022/05/20 00:59:17;;;;;;;;;;;;;;;34.04;19.88;100994.59;4415684;32;20573;-69
2022/05/20 01:01:46;;;;;;;;;;;;;;;34.20;19.64;101004.75;4418087;32;19949;-69
2022/05/20 01:04:13;;;;;;;;;;;;;;;34.07;19.66;100994.19;4416262;32;19979;-69
2022/05/20 01:06:38;;;;;;;;;;;;;;;34.16;19.51;101001.50;4413937;32;19965;-69
2022/05/20 01:09:04;;;;;;;;;;;;;;;34.36;19.47;100989.44;4416116;32;19993;-69
2022/05/20 01:11:29;;;;;;;;;;;;;;;34.29;19.50;100971.94;4417110;32;20029;-69
2022/05/20 01:13:55;;;;;;;;;;;;;;;34.20;19.49;100972.63;4417098;32;19997;-69
2022/05/20 01:16:21;;;;;;;;;;;;;;;34.34;19.25;100982.63;4417340;32;20435;-69
2022/05/20 01:18:46;;;;;;;;;;;;;;;34.11;19.35;100979.13;4416946;32;20386;-69
2022/05/20 01:21:12;;;;;;;;;;;;;;;34.03;19.35;100972.63;4415700;32;20189;-69
2022/05/20 01:23:38;;;;;;;;;;;;;;;33.81;19.45;100971.41;4413336;32;19989;-69
2022/05/20 01:26:05;;;;;;;;;;;;;;;34.31;19.24;100980.91;4415054;32;20324;-69
2022/05/20 01:28:31;;;;;;;;;;;;;;;34.26;19.40;100982.69;4415048;32;19949;-69
2022/05/20 01:31:00;;;;;;;;;;;;;;;33.94;19.61;100973.28;4414149;32;19958;-69
2022/05/20 01:33:30;;;;;;;;;;;;;;;33.85;19.74;100983.47;4414964;32;20425;-69
2022/05/20 01:35:56;;;;;;;;;;;;;;;34.28;19.44;100977.03;4417504;32;19990;-69
2022/05/20 01:38:22;;;;;;;;;;;;;;;34.16;19.25;100966.44;4415451;32;20298;-69
2022/05/20 01:40:50;;;;;;;;;;;;;;;34.07;19.56;100958.34;4415952;32;20068;-69
2022/05/20 01:43:23;;;;;;;;;;;;;;;34.31;19.35;100972.13;4417443;32;20328;-69
2022/05/20 01:45:57;;;;;;;;;;;;;;;34.28;19.33;100974.12;4415819;32;20253;-69
2022/05/20 01:48:30;;;;;;;;;;;;;;;34.11;19.48;100971.16;4416430;32;19969;-69
2022/05/20 01:50:56;;;;;;;;;;;;;;;34.29;19.39;100974.88;4414038;32;19949;-69
2022/05/20 01:53:41;;;;;;;;;;;;;;;34.49;19.21;100978.78;4416633;32;20036;-69
2022/05/20 01:56:14;;;;;;;;;;;;;;;34.38;19.09;100983.00;4416957;32;19997;-69
2022/05/20 01:58:44;;;;;;;;;;;;;;;34.36;19.01;100971.16;4412517;32;19994;-69
2022/05/20 02:01:13;;;;;;;;;;;;;;;34.38;18.95;100960.41;4417658;32;20328;-69
2022/05/20 02:03:43;;;;;;;;;;;;;;;34.45;18.98;100964.62;4414430;32;19965;-70
2022/05/20 02:06:14;;;;;;;;;;;;;;;33.94;19.31;100953.62;4413829;32;19946;-70
2022/05/20 02:08:46;;;;;;;;;;;;;;;34.17;19.19;100951.25;4415763;32;19959;-70
2022/05/20 02:11:16;;;;;;;;;;;;;;;34.38;19.06;100947.91;4413924;32;19997;-70
2022/05/20 02:13:45;;;;;;;;;;;;;;;34.42;18.92;100950.44;4416369;32;20011;-69
2022/05/20 02:16:13;;;;;;;;;;;;;;;34.31;19.18;100961.22;4417334;32;20005;-70
2022/05/20 02:18:42;;;;;;;;;;;;;;;34.04;19.40;100959.53;4413753;32;19980;-69
2022/05/20 02:21:10;;;;;;;;;;;;;;;34.29;19.24;100945.66;4415893;32;20000;-69
2022/05/20 02:23:39;;;;;;;;;;;;;;;34.27;19.45;100936.72;4413707;32;20633;-69
2022/05/20 02:26:07;;;;;;;;;;;;;;;34.32;19.35;100947.38;4413752;32;20389;-69
2022/05/20 02:28:35;;;;;;;;;;;;;;;34.27;19.41;100949.19;4418356;32;19953;-69
2022/05/20 02:31:02;;;;;;;;;;;;;;;34.53;19.09;100949.88;4412469;32;20327;-69
2022/05/20 02:33:28;;;;;;;;;;;;;;;34.47;18.95;100950.16;4414355;32;20363;-69
2022/05/20 02:36:02;;;;;;;;;;;;;;;34.59;18.94;100947.47;4415305;32;19993;-69
2022/05/20 02:38:27;;;;;;;;;;;;;;;34.14;19.16;100946.59;4416378;32;19988;-69
2022/05/20 02:40:53;;;;;;;;;;;;;;;34.33;19.01;100934.34;4417938;32;19957;-69
2022/05/20 02:43:19;;;;;;;;;;;;;;;34.38;18.95;100944.25;4414262;32;19974;-69
2022/05/20 02:45:46;;;;;;;;;;;;;;;34.22;19.04;100934.84;4412847;32;20002;-70
2022/05/20 02:48:13;;;;;;;;;;;;;;;34.31;19.12;100923.25;4414032;32;20487;-69
2022/05/20 02:50:39;;;;;;;;;;;;;;;33.95;19.38;100922.25;4416843;32;20017;-70
2022/05/20 02:53:04;;;;;;;;;;;;;;;34.33;18.98;100923.41;4411439;32;19969;-69
2022/05/20 02:55:30;;;;;;;;;;;;;;;34.21;19.20;100916.50;4417231;32;19965;-69
2022/05/20 02:57:55;;;;;;;;;;;;;;;34.22;19.08;100908.53;4399316;32;20009;-69
2022/05/20 03:04:09;;;;;;;;;;;;;;;34.36;19.25;100893.00;4412431;32;20035;-69
2022/05/20 03:05:52;;;;;;;;;;;;;;;34.43;18.96;100894.28;4415956;32;19989;-70
2022/05/20 03:08:18;;;;;;;;;;;;;;;34.49;19.19;100888.97;4415054;32;19968;-71
2022/05/20 03:10:43;;;;;;;;;;;;;;;34.50;19.23;100898.47;4414406;32;20030;-70
2022/05/20 03:13:09;;;;;;;;;;;;;;;34.31;19.43;100899.88;4412646;32;20557;-71
2022/05/20 03:15:37;;;;;;;;;;;;;;;34.24;19.42;100905.78;4414023;32;20608;-71
2022/05/20 03:18:02;;;;;;;;;;;;;;;34.21;19.42;100907.00;4414952;32;19960;-71
2022/05/20 03:20:28;;;;;;;;;;;;;;;34.38;18.98;100901.16;4415662;32;20105;-71
2022/05/20 03:22:54;;;;;;;;;;;;;;;34.44;19.08;100907.53;4415858;32;20019;-70
2022/05/20 03:25:20;;;;;;;;;;;;;;;34.46;19.09;100907.69;4414869;32;20431;-70
2022/05/20 03:27:48;;;;;;;;;;;;;;;34.44;19.08;100903.84;4412264;32;20461;-70
2022/05/20 03:30:13;;;;;;;;;;;;;;;34.28;19.26;100915.69;4415673;32;20000;-70
2022/05/20 03:32:40;;;;;;;;;;;;;;;34.25;19.20;100904.41;4413033;32;20012;-71
2022/05/20 03:35:06;;;;;;;;;;;;;;;34.48;18.77;100902.00;4413814;32;20086;-70
2022/05/20 03:37:32;;;;;;;;;;;;;;;34.58;18.80;100902.88;4415052;32;20528;-70
2022/05/20 03:39:57;;;;;;;;;;;;;;;34.78;18.55;100887.00;4416101;32;19971;-71
2022/05/20 03:42:23;;;;;;;;;;;;;;;34.54;18.66;100890.06;4413015;32;20005;-71
2022/05/20 03:44:49;;;;;;;;;;;;;;;34.75;18.43;100885.28;4413737;32;19961;-71
2022/05/20 03:47:15;;;;;;;;;;;;;;;34.77;18.55;100885.47;4414854;32;20390;-71
2022/05/20 03:49:42;;;;;;;;;;;;;;;34.72;18.70;100892.34;4414947;32;20312;-71
2022/05/20 03:52:08;;;;;;;;;;;;;;;34.85;18.37;100888.28;4412867;32;19977;-71
2022/05/20 03:54:33;;;;;;;;;;;;;;;34.76;18.64;100889.00;4414799;32;20314;-71
2022/05/20 03:56:59;;;;;;;;;;;;;;;34.50;18.76;100886.78;4414813;32;19957;-70
2022/05/20 03:59:26;;;;;;;;;;;;;;;34.63;18.77;100877.69;4415272;32;19962;-70
2022/05/20 04:01:59;;;;;;;;;;;;;;;34.79;18.63;100879.00;4418563;32;20041;-71
2022/05/20 04:07:01;;;;;;;;;;;;;;;35.07;18.62;100866.72;3951157;32;15721444;-70
2022/05/20 04:09:27;;;;;;;;;;;;;;;35.07;18.62;100866.72;4431899;32;20319;-71
2022/05/20 04:11:55;;;;;;;;;;;;;;;34.51;18.90;100873.75;4433651;32;20070;-71
2022/05/20 04:14:21;;;;;;;;;;;;;;;34.69;18.85;100872.34;4429669;32;19957;-71
2022/05/20 04:16:48;;;;;;;;;;;;;;;34.82;18.76;100871.94;4432533;32;20001;-71
2022/05/20 04:19:14;;;;;;;;;;;;;;;34.83;18.76;100876.41;4430764;32;19965;-71
2022/05/20 04:21:41;;;;;;;;;;;;;;;34.85;18.75;100868.59;4432080;32;20011;-71
2022/05/20 04:24:07;;;;;;;;;;;;;;;34.74;18.96;100853.72;4430001;32;19996;-71
2022/05/20 04:26:33;;;;;;;;;;;;;;;35.06;18.73;100862.28;4434916;32;19997;-70
2022/05/20 04:28:58;;;;;;;;;;;;;;;34.99;18.84;100855.13;4432940;32;20338;-71
2022/05/20 04:31:24;;;;;;;;;;;;;;;35.09;18.83;100855.19;4435947;32;20062;-71
2022/05/20 04:33:50;;;;;;;;;;;;;;;35.18;18.91;100864.00;4433683;32;19953;-71
2022/05/20 04:36:15;;;;;;;;;;;;;;;35.22;18.86;100867.25;4432561;32;19953;-71
2022/05/20 04:38:41;;;;;;;;;;;;;;;35.40;18.59;100865.06;4428363;32;20390;-71
2022/05/20 04:47:08;;;;;;;;;;;;;;;35.67;18.43;100854.03;4434837;32;19984;-71
2022/05/20 04:49:24;;;;;;;;;;;;;;;35.29;18.52;100859.75;4432637;32;19996;-71
2022/05/20 04:51:50;;;;;;;;;;;;;;;35.57;18.33;100865.72;4430895;32;20445;-71
2022/05/20 04:57:01;;;;;;;;;;;;;;;35.28;18.19;100858.97;4427705;32;20312;-71
2022/05/20 04:59:27;;;;;;;;;;;;;;;35.19;18.10;100856.78;4434019;32;19964;-71
2022/05/20 05:01:52;;;;;;;;;;;;;;;35.49;18.16;100856.28;4430966;32;20010;-71
2022/05/20 05:04:18;;;;;;;;;;;;;;;35.46;18.27;100847.97;4433719;32;20316;-71
2022/05/20 05:06:44;;;;;;;;;;;;;;;35.43;18.46;100855.81;4430533;32;20420;-70
2022/05/20 05:09:09;;;;;;;;;;;;;;;35.30;18.25;100870.06;4432636;32;19994;-70
2022/05/20 05:11:39;;;;;;;;;;;;;;;35.52;18.02;100866.78;4430885;32;20150;-70
2022/05/20 05:14:07;;;;;;;;;;;;;;;35.05;18.37;100855.62;4403736;32;19967;-71
2022/05/20 05:16:34;;;;;;;;;;;;;;;35.19;18.16;100856.00;4427861;32;20052;-70
2022/05/20 05:19:00;;;;;;;;;;;;;;;35.24;18.11;100852.78;4422273;32;20349;-71
2022/05/20 05:21:26;;;;;;;;;;;;;;;35.13;18.34;100856.31;4423181;32;19958;-70
2022/05/20 05:23:53;;;;;;;;;;;;;;;35.18;18.40;100869.84;4421954;32;19983;-71
2022/05/20 05:26:20;;;;;;;;;;;;;;;35.33;18.14;100868.84;4417269;32;19972;-70
2022/05/20 05:28:45;;;;;;;;;;;;;;;34.96;18.37;100861.41;4422771;32;19953;-70
2022/05/20 05:31:11;;;;;;;;;;;;;;;35.27;18.20;100874.97;4423797;32;20354;-70
2022/05/20 05:33:36;;;;;;;;;;;;;;;34.68;18.71;100888.31;4408272;32;20328;-70
2022/05/20 05:36:02;;;;;;;;;;;;;;;35.09;18.38;100867.66;4420992;32;20384;-70
2022/05/20 05:38:27;;;;;;;;;;;;;;;34.79;18.53;100868.09;4423186;32;19989;-70
2022/05/20 05:40:52;;;;;;;;;;;;;;;35.02;18.42;100880.25;4419444;32;20048;-70
2022/05/20 05:43:18;;;;;;;;;;;;;;;35.12;18.44;100881.06;4417104;32;19945;-70
2022/05/20 05:45:44;;;;;;;;;;;;;;;35.06;18.46;100882.75;4417420;32;19993;-70
2022/05/20 05:48:10;;;;;;;;;;;;;;;35.09;18.42;100885.22;4419832;32;19954;-70
2022/05/20 05:50:37;;;;;;;;;;;;;;;35.23;18.19;100873.88;4422286;32;20428;-70
2022/05/20 05:53:22;;;;;;;;;;;;;;;35.15;17.86;100874.00;4422279;32;20119;-70
2022/05/20 05:55:49;;;;;;;;;;;;;;;34.91;18.18;100883.72;4418548;32;19984;-70
2022/05/20 05:58:15;;;;;;;;;;;;;;;35.27;17.80;100880.84;4421586;32;19965;-71
2022/05/20 06:00:41;;;;;;;;;;;;;;;35.32;17.65;100885.63;4422381;32;20009;-69
2022/05/20 06:03:07;;;;;;;;;;;;;;;35.17;17.75;100888.81;4417024;32;20016;-70
2022/05/20 06:05:33;;;;;;;;;;;;;;;35.23;17.72;100889.28;4421232;32;19973;-70
2022/05/20 06:07:59;;;;;;;;;;;;;;;35.36;17.58;100879.34;4418107;32;19962;-69
2022/05/20 06:10:25;;;;;;;;;;;;;;;35.70;17.29;100893.78;4422018;32;20407;-69
2022/05/20 06:12:51;;;;;;;;;;;;;;;35.70;17.35;100894.56;4417483;32;19993;-70
2022/05/20 06:15:19;;;;;;;;;;;;;;;35.78;17.35;100886.44;4419934;32;20050;-70
2022/05/20 06:17:45;;;;;;;;;;;;;;;35.64;17.70;100896.25;4406919;32;20023;-70
2022/05/20 06:20:11;;;;;;;;;;;;;;;35.76;17.34;100892.13;4421015;32;19997;-70
2022/05/20 06:22:37;;;;;;;;;;;;;;;35.49;17.59;100891.41;4418977;32;20038;-70
2022/05/20 06:25:03;;;;;;;;;;;;;;;36.06;17.25;100896.69;4419717;32;20020;-71
2022/05/20 06:27:30;;;;;;;;;;;;;;;35.64;17.52;100891.16;4422763;32;20400;-71
2022/05/20 06:29:56;;;;;;;;;;;;;;;35.79;17.41;100896.75;4415828;32;20014;-71
2022/05/20 06:32:21;;;;;;;;;;;;;;;36.03;17.31;100892.03;4412182;32;20581;-71
2022/05/20 06:40:20;;;;;;;;;;;;;;;35.78;17.45;100889.38;4414706;32;19996;-71
2022/05/20 06:42:45;;;;;;;;;;;;;;;35.47;17.83;100885.41;4415489;32;20433;-70
2022/05/20 06:45:12;;;;;;;;;;;;;;;35.57;17.56;100892.06;4414799;32;19966;-71
2022/05/20 06:47:40;;;;;;;;;;;;;;;35.43;17.74;100884.31;4408080;32;20249;-71
2022/05/20 06:50:08;;;;;;;;;;;;;;;35.85;17.39;100881.84;4411396;32;20018;-71
2022/05/20 06:52:35;;;;;;;;;;;;;;;35.59;17.42;100870.97;4409578;32;20051;-71
2022/05/20 06:55:02;;;;;;;;;;;;;;;36.17;17.12;100866.78;4412842;32;20003;-71
2022/05/20 06:57:28;;;;;;;;;;;;;;;35.51;17.41;100864.47;4417975;32;19972;-70
2022/05/20 06:59:53;;;;;;;;;;;;;;;35.28;17.61;100861.13;4410450;32;21284;-71
2022/05/20 07:02:19;;;;;;;;;;;;;;;35.48;17.54;100860.63;4403644;32;20027;-71
2022/05/20 07:04:48;;;;;;;;;;;;;;;35.97;17.03;100853.50;4410754;32;20075;-76
2022/05/20 07:07:17;;;;;;;;;;;;;;;36.12;16.77;100853.19;4402840;32;20981;-70
2022/05/20 07:09:43;;;;;;;;;;;;;;;36.09;16.87;100854.44;4410856;32;20004;-70
2022/05/20 07:12:09;;;;;;;;;;;;;;;36.40;16.55;100855.38;4412540;32;19965;-70
2022/05/20 07:14:34;;;;;;;;;;;;;;;36.40;16.80;100851.66;4410496;32;20143;-70
2022/05/20 07:17:01;;;;;;;;;;;;;;;36.23;16.63;100850.41;4415596;32;19965;-70
2022/05/20 07:19:27;;;;;;;;;;;;;;;36.27;16.42;100838.22;4407132;32;19995;-70
2022/05/20 07:21:52;;;;;;;;;;;;;;;36.79;15.91;100845.16;4406838;32;20819;-70
2022/05/20 07:24:18;;;;;;;;;;;;;;;36.75;15.86;100849.94;4408636;32;19962;-70
2022/05/20 07:26:44;;;;;;;;;;;;;;;36.18;16.05;100836.06;4408532;32;20029;-70
2022/05/20 07:29:09;;;;;;;;;;;;;;;36.89;15.70;100840.03;4412902;32;20311;-70
2022/05/20 07:31:35;;;;;;;;;;;;;;;36.74;15.74;100824.94;4409756;32;19954;-70
2022/05/20 07:34:01;;;;;;;;;;;;;;;36.57;16.09;100828.81;4412883;32;20045;-70
2022/05/20 07:36:27;;;;;;;;;;;;;;;36.65;15.85;100822.78;4410177;32;19992;-70
2022/05/20 07:38:53;;;;;;;;;;;;;;;36.82;16.05;100826.31;4411717;32;20138;-70
2022/05/20 07:41:20;;;;;;;;;;;;;;;36.90;15.73;100809.28;4411764;32;19970;-70
2022/05/20 07:43:46;;;;;;;;;;;;;;;36.80;15.82;100817.34;4407360;32;19969;-70
2022/05/20 07:46:12;;;;;;;;;;;;;;;37.49;15.36;100811.34;4410628;32;20020;-71
2022/05/20 07:48:37;;;;;;;;;;;;;;;37.42;15.21;100813.09;4407049;32;20180;-72
2022/05/20 07:51:05;;;;;;;;;;;;;;;36.89;15.78;100809.91;4409333;32;20777;-70
2022/05/20 07:53:35;;;;;;;;;;;;;;;36.76;15.94;100802.41;4407045;32;20366;-71
2022/05/20 07:56:05;;;;;;;;;;;;;;;36.15;16.33;100805.06;4409807;32;20398;-70
2022/05/20 07:58:33;;;;;;;;;;;;;;;36.51;16.19;100807.84;4408913;32;20090;-70
2022/05/20 08:00:59;;;;;;;;;;;;;;;36.19;16.36;100802.44;4408756;32;19953;-71
2022/05/20 08:06:12;;;;;;;;;;;;;;;36.80;16.09;100807.78;4410441;32;19962;-70
2022/05/20 08:08:39;;;;;;;;;;;;;;;36.34;16.28;100798.44;4405437;32;19972;-70
2022/05/20 08:11:05;;;;;;;;;;;;;;;36.44;15.95;100808.75;4407710;32;20535;-70
2022/05/20 08:13:31;;;;;;;;;;;;;;;36.23;15.93;100815.25;4411687;32;20306;-70
2022/05/20 08:15:58;;;;;;;;;;;;;;;35.98;16.09;100808.16;4407687;32;20112;-70
2022/05/20 08:18:23;;;;;;;;;;;;;;;36.22;16.02;100810.78;4410321;32;20425;-70
2022/05/20 08:20:50;;;;;;;;;;;;;;;35.97;16.25;100807.41;4405377;32;20016;-70
2022/05/20 08:23:17;;;;;;;;;;;;;;;36.22;15.97;100810.78;4409148;32;19997;-70
2022/05/20 08:25:42;;;;;;;;;;;;;;;35.83;16.55;100806.28;4410875;32;20002;-70
2022/05/20 08:28:08;;;;;;;;;;;;;;;36.16;16.18;100803.69;4405071;32;19985;-70
2022/05/20 08:30:34;;;;;;;;;;;;;;;36.03;16.36;100804.94;4409786;32;20467;-72
2022/05/20 08:32:59;;;;;;;;;;;;;;;35.45;16.87;100787.88;4405348;32;20735;-70
2022/05/20 08:35:27;;;;;;;;;;;;;;;35.37;16.99;100796.03;4407023;32;20013;-70
2022/05/20 08:37:53;;;;;;;;;;;;;;;36.80;15.88;100796.81;4410771;32;20794;-72
2022/05/20 08:40:29;;;;;;;;;;;;;;;36.64;16.00;100797.75;4407045;32;20015;-70
2022/05/20 08:42:57;;;;;;;;;;;;;;;36.04;16.48;100791.03;4405587;32;19993;-73
2022/05/20 08:45:25;;;;;;;;;;;;;;;36.49;16.29;100778.38;4407337;32;20001;-70
2022/05/20 08:47:51;;;;;;;;;;;;;;;36.51;16.28;100784.38;4406276;32;20890;-71
2022/05/20 08:50:20;;;;;;;;;;;;;;;36.35;16.49;100777.31;4406571;32;19954;-72
2022/05/20 08:52:46;;;;;;;;;;;;;;;36.61;16.21;100769.69;4406069;32;20083;-71
2022/05/20 08:55:12;;;;;;;;;;;;;;;36.27;16.34;100761.25;4407456;32;20330;-71
2022/05/20 08:57:39;;;;;;;;;;;;;;;36.94;16.07;100762.66;4406550;32;19966;-70
2022/05/20 09:00:06;;;;;;;;;;;;;;;37.69;15.53;100777.53;4411861;32;19968;-71
2022/05/20 09:02:32;;;;;;;;;;;;;;;36.75;16.06;100768.56;4411516;32;19985;-71
2022/05/20 09:04:59;;;;;;;;;;;;;;;36.91;15.85;100769.00;4410473;32;20537;-70
2022/05/20 09:07:25;;;;;;;;;;;;;;;36.70;15.99;100755.00;4403996;32;20009;-71
2022/05/20 09:09:56;;;;;;;;;;;;;;;35.99;16.40;100748.94;4409789;32;20000;-71
2022/05/20 09:12:33;;;;;;;;;;;;;;;35.76;16.56;100742.75;4415429;32;20292;-71
2022/05/20 09:17:41;;;;;;;;;;;;;;;37.80;15.23;100732.78;3952104;31;15717279;-72
2022/05/20 09:20:10;;;;;;;;;;;;;;;37.25;15.39;100742.13;4422581;32;19960;-72
2022/05/20 09:22:37;;;;;;;;;;;;;;;37.10;15.47;100728.59;4414338;32;20060;-72
2022/05/20 09:25:04;;;;;;;;;;;;;;;36.13;16.15;100738.28;4419564;32;20245;-71
2022/05/20 09:27:31;;;;;;;;;;;;;;;36.58;15.83;100733.59;4422028;32;20365;-72
2022/05/20 09:30:03;;;;;;;;;;;;;;;36.95;15.62;100728.19;4420942;32;20030;-72
2022/05/20 09:32:33;;;;;;;;;;;;;;;37.04;15.51;100725.22;4418100;32;20254;-72
2022/05/20 09:35:01;;;;;;;;;;;;;;;36.51;15.86;100716.16;4425193;32;20439;-72
2022/05/20 09:37:28;;;;;;;;;;;;;;;37.43;15.12;100722.84;4420087;32;20176;-70
2022/05/20 09:39:54;;;;;;;;;;;;;;;37.04;15.41;100721.50;4418734;32;20134;-70
2022/05/20 09:42:28;;;;;;;;;;;;;;;37.48;15.21;100722.47;4421461;32;20001;-70
2022/05/20 09:44:56;;;;;;;;;;;;;;;37.61;15.01;100718.22;4417799;32;19989;-70
2022/05/20 09:50:15;;;;;;;;;;;;;;;38.38;14.70;100709.47;3943897;32;15723348;-72
2022/05/20 09:52:49;;;;;;;;;;;;;;;38.38;14.70;100709.47;4410190;32;20056;-72
2022/05/20 09:55:25;;;;;;;;;;;;;;;38.33;14.65;100717.25;4412743;32;20045;-71
2022/05/20 09:57:54;;;;;;;;;;;;;;;38.83;14.20;100713.91;4411995;32;20020;-71
2022/05/20 10:00:23;;;;;;;;;;;;;;;37.97;14.73;100703.06;4415943;32;19953;-71
2022/05/20 10:05:41;;;;;;;;;;;;;;;39.70;13.89;100700.97;3949814;32;15723443;-70
2022/05/20 10:08:27;;;;;;;;;;;;;;;39.70;13.89;100700.97;4421847;32;20545;-70
2022/05/20 10:11:12;;;;;;;;;;;;;;;38.91;14.31;100699.69;4422428;32;19992;-71
2022/05/20 10:13:43;;;;;;;;;;;;;;;38.27;14.58;100705.09;4418253;32;19993;-71
2022/05/20 10:18:48;;;;;;;;;;;;;;;39.35;13.77;100693.63;3943565;32;15773415;-71
2022/05/20 10:21:20;;;;;;;;;;;;;;;39.35;13.77;100693.63;4415057;32;20020;-71
2022/05/20 10:24:05;;;;;;;;;;;;;;;38.41;14.28;100682.53;4413453;32;20017;-72
2022/05/20 10:26:50;;;;;;;;;;;;;;;37.28;14.95;100691.75;4413288;32;20011;-72
2022/05/20 10:32:43;;;;;;;;;;;;;;;37.51;15.02;100688.94;4415492;32;19988;-71
2022/05/20 10:34:58;;;;;;;;;;;;;;;37.23;15.21;100683.25;4419037;32;20019;-71
2022/05/20 10:37:47;;;;;;;;;;;;;;;37.17;15.43;100683.59;4413328;32;20040;-72
2022/05/20 10:40:33;;;;;;;;;;;;;;;37.41;15.29;100676.50;4416618;32;20019;-72
2022/05/20 10:43:19;;;;;;;;;;;;;;;37.01;15.62;100678.75;4418620;32;20030;-72
2022/05/20 10:48:51;;;;;;;;;;;;;;;37.39;15.53;100675.59;4416690;32;19964;-73
2022/05/20 10:56:56;;;;;;;;;;;;;;;35.69;18.25;100688.06;3941455;32;15722567;-72
2022/05/20 11:05:09;;;;;;;;;;;;;;;36.16;17.94;100683.53;3947984;32;15723035;-73
2022/05/20 11:15:35;;;;;;;;;;;;;;;37.30;16.64;100670.56;3944042;32;15721489;-73
2022/05/20 11:20:58;;;;;;;;;;;;;;;37.30;16.29;100662.50;3947164;32;15722629;-72
2022/05/20 11:26:23;;;;;;;;;;;;;;;37.13;16.40;100656.91;3950167;32;15723543;-73
2022/05/20 11:29:03;;;;;;;;;;;;;;;37.13;16.40;100656.91;4432128;32;20046;-73
2022/05/20 11:36:52;;;;;;;;;;;;;;;38.62;15.45;100644.19;3947181;32;15726606;-72
2022/05/20 11:42:14;;;;;;;;;;;;;;;37.81;15.91;100625.59;3945178;32;15725397;-72
2022/05/20 11:47:25;;;;;;;;;;;;;;;39.19;15.05;100628.66;3942218;32;15723932;-71
2022/05/20 11:55:18;;;;;;;;;;;;;;;37.96;15.84;100619.25;3947693;32;15729663;-71
2022/05/20 11:57:46;;;;;;;;;;;;;;;37.96;15.84;100619.25;4419433;32;19981;-71
2022/05/20 12:00:14;;;;;;;;;;;;;;;37.90;15.91;100607.09;4419200;32;19958;-71
2022/05/20 12:02:43;;;;;;;;;;;;;;;38.15;15.61;100604.38;4416144;32;19997;-70
2022/05/20 12:05:11;;;;;;;;;;;;;;;36.86;16.53;100600.72;4420055;32;20004;-70
2022/05/20 12:07:37;;;;;;;;;;;;;;;37.24;16.33;100602.63;4416790;32;20540;-71
2022/05/20 12:10:23;;;;;;;;;;;;;;;37.75;15.64;100589.94;4423910;32;19993;-70
2022/05/20 12:12:53;;;;;;;;;;;;;;;36.31;16.72;100583.56;4420022;32;20052;-70
2022/05/20 12:17:54;;;;;;;;;;;;;;;37.20;16.02;100588.44;3944570;32;15722572;-70
2022/05/20 12:28:36;;;;;;;;;;;;;;;38.58;15.25;100576.28;3942322;32;15721390;-72
2022/05/20 12:34:00;;;;;;;;;;;;;;;38.48;15.30;100566.81;3945028;32;15726043;-72
2022/05/20 12:49:44;;;;;;;;;;;;;;;37.11;16.12;100568.72;3961417;32;15723503;-72
2022/05/20 12:52:14;;;;;;;;;;;;;;;37.39;15.80;100555.97;4438768;32;19957;-72
2022/05/20 12:54:42;;;;;;;;;;;;;;;38.63;15.11;100565.53;4438141;32;20016;-72
2022/05/20 12:57:09;;;;;;;;;;;;;;;37.79;15.66;100558.66;4440289;32;20012;-72
2022/05/20 12:59:35;;;;;;;;;;;;;;;37.06;16.03;100561.03;4442220;32;20328;-72
2022/05/20 13:02:06;;;;;;;;;;;;;;;37.89;15.33;100555.63;4439898;32;20416;-72
2022/05/20 13:04:36;;;;;;;;;;;;;;;38.63;14.96;100553.78;4438569;32;19984;-72
2022/05/20 13:07:03;;;;;;;;;;;;;;;35.70;17.04;100551.19;4440124;32;19992;-72
2022/05/20 13:09:35;;;;;;;;;;;;;;;35.70;17.16;100545.34;4440280;32;19991;-72
2022/05/20 13:12:04;;;;;;;;;;;;;;;35.31;17.60;100558.50;4440641;32;20000;-72
2022/05/20 13:14:30;;;;;;;;;;;;;;;34.79;18.03;100540.59;4437102;32;20018;-72
2022/05/20 13:16:56;;;;;;;;;;;;;;;34.81;18.20;100543.66;4435463;32;19979;-72
2022/05/20 13:19:38;;;;;;;;;;;;;;;34.19;18.79;100539.50;4439550;32;19984;-72
2022/05/20 13:22:05;;;;;;;;;;;;;;;33.63;19.72;100548.72;4438608;32;20334;-72
2022/05/20 13:24:33;;;;;;;;;;;;;;;34.47;18.87;100543.16;4442653;32;19953;-72
2022/05/20 13:27:17;;;;;;;;;;;;;;;34.44;18.97;100542.22;4436804;32;20310;-72
2022/05/20 13:29:44;;;;;;;;;;;;;;;35.30;18.29;100540.16;4439744;32;19987;-72
2022/05/20 13:32:10;;;;;;;;;;;;;;;36.05;17.69;100547.25;4438503;32;20007;-72
2022/05/20 13:34:36;;;;;;;;;;;;;;;37.26;16.59;100541.13;4440100;32;19992;-73
2022/05/20 13:37:01;;;;;;;;;;;;;;;36.55;16.98;100544.25;4437065;32;20310;-72
2022/05/20 13:39:27;;;;;;;;;;;;;;;36.11;17.45;100541.81;4439576;32;20016;-72
2022/05/20 13:41:54;;;;;;;;;;;;;;;36.18;17.44;100540.88;4436996;32;20181;-72
2022/05/20 13:44:25;;;;;;;;;;;;;;;35.63;18.04;100547.06;4436305;32;20092;-72
2022/05/20 13:49:38;;;;;;;;;;;;;;;34.66;19.78;100560.72;4424637;32;20366;-72
2022/05/20 13:52:06;;;;;;;;;;;;;;;33.08;21.37;100557.97;4439287;32;19972;-72
2022/05/20 13:54:53;;;;;;;;;;;;;;;33.48;21.06;100560.59;4437747;32;20545;-72
2022/05/20 13:57:24;;;;;;;;;;;;;;;33.29;21.12;100563.38;4442611;32;19957;-72
2022/05/20 13:59:53;;;;;;;;;;;;;;;32.69;21.51;100567.72;4422545;32;20049;-71
2022/05/20 14:02:33;;;;;;;;;;;;;;;32.97;21.82;100555.56;4427906;32;20291;-72
2022/05/20 14:04:59;;;;;;;;;;;;;;;32.84;22.07;100552.19;4423667;32;20005;-72
2022/05/20 14:10:27;;;;;;;;;;;;;;;36.00;18.91;100553.44;3945423;32;15724644;-72
2022/05/20 14:18:14;;;;;;;;;;;;;;;40.60;14.74;100545.44;3946500;32;15722520;-72
2022/05/20 14:20:41;;;;;;;;;;;;;;;40.60;14.74;100545.44;4423670;32;20009;-72
2022/05/20 14:23:08;;;;;;;;;;;;;;;40.14;14.73;100540.69;4424379;32;19952;-72
2022/05/20 14:25:44;;;;;;;;;;;;;;;41.35;13.71;100528.03;4423573;32;19997;-72
2022/05/20 14:28:15;;;;;;;;;;;;;;;42.53;12.74;100532.28;4426949;32;19964;-72
2022/05/20 14:30:44;;;;;;;;;;;;;;;43.63;12.08;100525.28;4423941;32;19977;-72
2022/05/20 14:33:15;;;;;;;;;;;;;;;43.68;11.90;100524.00;4422617;32;20377;-72
2022/05/20 14:35:43;;;;;;;;;;;;;;;43.97;11.96;100520.75;4421726;32;20999;-72
2022/05/20 14:38:12;;;;;;;;;;;;;;;44.43;11.52;100516.62;4424916;32;19998;-71